createdAt,value
2023-01-05T00:02:24.898Z,5.62
2023-01-05T00:04:55.537Z,6.03
2023-01-05T00:07:26.066Z,6.58
2023-01-05T00:09:59.596Z,7.95
2023-01-05T00:12:48.932Z,6.80
2023-01-05T00:15:37.734Z,7.50
2023-01-05T00:18:32.116Z,7.25
2023-01-05T00:21:22.378Z,7.60
2023-01-05T00:23:53.383Z,10.10
2023-01-05T00:26:25.154Z,8.60
2023-01-05T00:28:56.257Z,7.85
2023-01-05T00:31:26.725Z,8.03
2023-01-05T00:34:00.078Z,7.50
2023-01-05T00:36:32.015Z,7.15
2023-01-05T00:39:02.441Z,7.00
2023-01-05T00:41:33.004Z,9.13
2023-01-05T00:44:03.347Z,5.40
2023-01-05T00:46:34.071Z,8.33
2023-01-05T00:49:04.683Z,9.03
2023-01-05T00:51:37.332Z,5.35
2023-01-05T00:54:09.382Z,6.50
2023-01-05T00:56:39.989Z,5.30
2023-01-05T00:59:13.859Z,7.50
2023-01-05T01:01:49.657Z,4.97
2023-01-05T01:04:21.697Z,8.63
2023-01-05T01:06:53.939Z,7.45
2023-01-05T01:09:26.601Z,4.97
2023-01-05T01:11:57.179Z,7.55
2023-01-05T01:14:31.373Z,6.07
2023-01-05T01:17:01.789Z,6.67
2023-01-05T01:19:32.503Z,5.33
2023-01-05T01:22:03.054Z,9.28
2023-01-05T01:24:34.704Z,5.20
2023-01-05T01:27:05.260Z,7.60
2023-01-05T01:29:37.016Z,10.07
2023-01-05T01:32:08.507Z,6.87
2023-01-05T01:34:40.646Z,9.03
2023-01-05T01:37:12.022Z,7.70
2023-01-05T01:39:43.702Z,8.90
2023-01-05T01:42:16.627Z,6.92
2023-01-05T01:44:59.107Z,6.08
2023-01-05T01:47:32.642Z,7.28
2023-01-05T01:50:11.599Z,9.03
2023-01-05T01:52:43.497Z,6.75
2023-01-05T01:55:14.373Z,4.87
2023-01-05T01:57:48.303Z,8.63
2023-01-05T02:00:19.877Z,4.67
2023-01-05T02:02:53.845Z,7.97
2023-01-05T02:05:27.335Z,5.67
2023-01-05T02:07:59.841Z,4.20
2023-01-05T02:10:40.316Z,5.75
2023-01-05T02:13:19.475Z,5.87
2023-01-05T02:15:58.947Z,5.72
2023-01-05T02:18:43.932Z,3.92
2023-01-05T02:21:39.938Z,7.95
2023-01-05T02:24:33.812Z,3.85
2023-01-05T02:27:30.580Z,6.47
2023-01-05T02:30:07.149Z,6.70
2023-01-05T02:33:05.850Z,7.10
2023-01-05T02:35:56.008Z,6.80
2023-01-05T02:38:49.015Z,5.43
2023-01-05T02:41:22.636Z,5.65
2023-01-05T02:43:54.914Z,4.50
2023-01-05T02:46:27.016Z,7.28
2023-01-05T02:49:00.051Z,9.53
2023-01-05T02:51:39.320Z,7.42
2023-01-05T02:54:16.794Z,5.40
2023-01-05T02:56:59.357Z,8.65
2023-01-05T02:59:45.093Z,5.67
2023-01-05T03:02:30.458Z,5.83
2023-01-05T03:05:10.326Z,6.60
2023-01-05T03:07:43.451Z,7.15
2023-01-05T03:10:33.705Z,3.33
2023-01-05T03:13:25.533Z,5.47
2023-01-05T03:15:59.976Z,4.85
2023-01-05T03:18:36.456Z,5.45
2023-01-05T03:21:07.376Z,6.17
2023-01-05T03:23:56.587Z,3.93
2023-01-05T03:26:45.063Z,6.17
2023-01-05T03:29:33.545Z,5.70
2023-01-05T03:32:33.102Z,4.85
2023-01-05T03:35:37.418Z,7.40
2023-01-05T03:38:18.263Z,5.35
2023-01-05T03:40:51.485Z,5.50
2023-01-05T03:43:23.390Z,4.87
2023-01-05T03:45:56.692Z,4.20
2023-01-05T03:48:28.991Z,6.20
2023-01-05T03:50:59.643Z,5.35
2023-01-05T03:53:30.084Z,4.33
2023-01-05T03:56:00.746Z,4.90
2023-01-05T03:58:31.101Z,5.20
2023-01-05T04:01:01.735Z,4.03
2023-01-05T04:03:32.800Z,4.95
2023-01-05T04:06:07.343Z,5.78
2023-01-05T04:08:37.909Z,5.03
2023-01-05T04:11:13.685Z,5.00
2023-01-05T04:13:44.203Z,4.50
2023-01-05T04:16:16.704Z,3.30
2023-01-05T04:18:48.662Z,5.00
2023-01-05T04:21:19.224Z,3.87
2023-01-05T04:23:49.645Z,3.35
2023-01-05T04:26:21.760Z,4.37
2023-01-05T04:28:52.387Z,3.42
2023-01-05T04:31:24.479Z,6.35
2023-01-05T04:33:56.971Z,5.42
2023-01-05T04:36:27.612Z,5.30
2023-01-05T04:38:58.277Z,5.22
2023-01-05T04:41:28.853Z,4.83
2023-01-05T04:43:59.359Z,4.72
2023-01-05T04:46:30.483Z,4.85
2023-01-05T04:49:01.083Z,4.45
2023-01-05T04:51:38.032Z,4.12
2023-01-05T04:54:04.520Z,4.70
2023-01-05T04:56:35.055Z,7.03
2023-01-05T04:59:06.466Z,5.45
2023-01-05T05:01:37.442Z,4.47
2023-01-05T05:04:08.039Z,4.15
2023-01-05T05:06:39.001Z,4.60
2023-01-05T05:09:09.518Z,4.10
2023-01-05T05:11:39.988Z,3.55
2023-01-05T05:14:10.477Z,4.55
2023-01-05T05:16:40.939Z,3.67
2023-01-05T05:19:13.039Z,2.50
2023-01-05T05:21:48.912Z,5.08
2023-01-05T05:24:23.105Z,5.17
2023-01-05T05:26:55.072Z,5.03
2023-01-05T05:29:27.025Z,5.03
2023-01-05T05:31:57.698Z,5.30
2023-01-05T05:34:30.414Z,6.08
2023-01-05T05:37:00.947Z,7.12
2023-01-05T05:39:31.427Z,4.28
2023-01-05T05:42:02.110Z,6.08
2023-01-05T05:44:35.104Z,5.85
2023-01-05T05:47:06.039Z,6.58
2023-01-05T05:49:37.505Z,7.12
2023-01-05T05:52:08.937Z,4.58
2023-01-05T05:54:39.371Z,5.17
2023-01-05T05:57:10.520Z,3.10
2023-01-05T05:59:42.507Z,2.10
2023-01-05T06:02:13.713Z,4.20
2023-01-05T06:04:45.392Z,5.50
2023-01-05T06:07:15.940Z,4.72
2023-01-05T06:09:47.140Z,3.10
2023-01-05T06:12:17.825Z,3.58
2023-01-05T06:14:48.386Z,3.35
2023-01-05T06:17:21.868Z,3.67
2023-01-05T06:19:52.651Z,2.12
2023-01-05T06:22:26.482Z,2.20
2023-01-05T06:24:58.299Z,1.47
2023-01-05T06:27:29.087Z,2.20
2023-01-05T06:30:00.739Z,2.60
2023-01-05T06:32:31.217Z,2.72
2023-01-05T06:35:01.761Z,1.20
2023-01-05T06:37:35.751Z,2.95
2023-01-05T06:40:13.280Z,1.65
2023-01-05T06:42:44.258Z,1.85
2023-01-05T06:45:17.651Z,1.43
2023-01-05T06:47:48.335Z,1.10
2023-01-05T06:50:20.458Z,2.52
2023-01-05T06:52:51.566Z,2.10
2023-01-05T06:55:21.976Z,1.85
2023-01-05T06:57:58.713Z,2.10
2023-01-05T07:00:26.139Z,1.47
2023-01-05T07:02:58.258Z,1.97
2023-01-05T07:05:29.283Z,2.77
2023-01-05T07:08:01.361Z,1.22
2023-01-05T07:10:35.582Z,1.45
2023-01-05T07:13:08.510Z,3.33
2023-01-05T07:15:40.073Z,2.13
2023-01-05T07:18:11.544Z,1.77
2023-01-05T07:20:43.770Z,2.50
2023-01-05T07:23:14.219Z,2.75
2023-01-05T07:25:44.661Z,0.88
2023-01-05T07:28:16.737Z,1.12
2023-01-05T07:30:52.505Z,2.70
2023-01-05T07:33:23.111Z,1.47
2023-01-05T07:35:54.631Z,1.30
2023-01-05T07:38:25.079Z,1.97
2023-01-05T07:40:57.362Z,2.17
2023-01-05T07:43:32.115Z,1.32
2023-01-05T07:46:04.257Z,1.52
2023-01-05T07:48:41.369Z,1.53
2023-01-05T07:51:14.497Z,1.43
2023-01-05T07:53:45.024Z,2.20
2023-01-05T07:56:15.791Z,1.75
2023-01-05T07:58:46.263Z,0.80
2023-01-05T08:01:20.356Z,0.68
2023-01-05T08:03:51.184Z,1.07
2023-01-05T08:06:22.515Z,1.35
2023-01-05T08:08:56.775Z,1.50
2023-01-05T08:11:28.805Z,1.25
2023-01-05T08:14:06.716Z,1.27
2023-01-05T08:16:37.466Z,1.55
2023-01-05T08:19:11.276Z,1.30
2023-01-05T08:21:40.182Z,1.30
2023-01-05T08:24:15.073Z,0.67
2023-01-05T08:26:48.703Z,0.80
2023-01-05T08:29:19.369Z,1.40
2023-01-05T08:31:51.271Z,2.87
2023-01-05T08:34:22.547Z,1.57
2023-01-05T08:36:54.233Z,2.70
2023-01-05T08:39:25.267Z,1.82
2023-01-05T08:42:02.035Z,1.37
2023-01-05T08:44:28.100Z,1.00
2023-01-05T08:46:58.682Z,2.10
2023-01-05T08:49:29.062Z,1.00
2023-01-05T08:51:59.483Z,1.23
2023-01-05T08:54:34.318Z,1.25
2023-01-05T08:57:05.172Z,1.30
2023-01-05T08:59:36.665Z,1.00
2023-01-05T09:02:09.565Z,2.20
2023-01-05T09:04:41.874Z,5.83
2023-01-05T09:07:13.775Z,1.07
2023-01-05T09:09:44.419Z,1.53
2023-01-05T09:12:17.425Z,2.30
2023-01-05T09:14:47.919Z,3.03
2023-01-05T09:17:18.534Z,3.40
2023-01-05T09:19:49.109Z,1.60
2023-01-05T09:22:21.444Z,2.27
2023-01-05T09:24:52.017Z,1.02
2023-01-05T09:27:22.624Z,1.37
2023-01-05T09:29:53.084Z,2.22
2023-01-05T09:32:26.195Z,2.50
2023-01-05T09:34:56.660Z,1.90
2023-01-05T09:37:27.330Z,2.80
2023-01-05T09:40:01.005Z,1.10
2023-01-05T09:42:35.431Z,4.78
2023-01-05T09:45:08.009Z,1.30
2023-01-05T09:47:41.749Z,1.20
2023-01-05T09:50:21.874Z,1.85
2023-01-05T09:52:57.778Z,2.52
2023-01-05T09:55:31.800Z,1.35
2023-01-05T09:58:17.262Z,2.75
2023-01-05T10:00:53.533Z,2.22
2023-01-05T10:06:00.810Z,2.92
2023-01-05T10:08:37.327Z,4.37
2023-01-05T10:11:34.993Z,1.12
2023-01-05T10:14:17.362Z,2.55
2023-01-05T10:16:53.681Z,3.37
2023-01-05T10:19:22.568Z,2.27
2023-01-05T10:22:10.993Z,2.90
2023-01-05T10:24:50.156Z,3.80
2023-01-05T10:27:44.826Z,3.33
2023-01-05T10:30:20.218Z,2.90
2023-01-05T10:33:03.890Z,2.35
2023-01-05T10:36:00.157Z,3.70
2023-01-05T10:38:35.804Z,3.15
2023-01-05T10:41:25.998Z,4.70
2023-01-05T10:44:00.270Z,2.73
2023-01-05T10:46:39.921Z,2.87
2023-01-05T10:49:03.258Z,3.50
2023-01-05T10:51:36.285Z,4.28
2023-01-05T10:54:09.699Z,3.90
2023-01-05T10:56:40.346Z,4.15
2023-01-05T10:59:14.834Z,3.17
2023-01-05T11:01:51.148Z,2.85
2023-01-05T11:04:33.349Z,5.17
2023-01-05T11:07:08.219Z,3.55
2023-01-05T11:09:45.970Z,4.45
2023-01-05T11:12:22.832Z,2.42
2023-01-05T11:14:58.762Z,2.50
2023-01-05T11:17:30.036Z,3.97
2023-01-05T11:20:03.588Z,3.27
2023-01-05T11:22:39.913Z,3.10
2023-01-05T11:25:19.676Z,3.45
2023-01-05T11:28:10.111Z,3.55
2023-01-05T11:30:58.591Z,7.00
2023-01-05T11:33:35.598Z,2.60
2023-01-05T11:36:07.085Z,4.22
2023-01-05T11:38:39.778Z,3.30
2023-01-05T11:41:12.696Z,1.80
2023-01-05T11:43:45.075Z,3.40
2023-01-05T11:46:16.668Z,4.22
2023-01-05T11:48:56.270Z,2.30
2023-01-05T11:51:41.790Z,2.72
2023-01-05T11:54:34.228Z,4.60
2023-01-05T11:57:19.801Z,6.45
2023-01-05T11:59:53.892Z,4.60
2023-01-05T12:02:45.768Z,3.40
2023-01-05T12:05:29.411Z,4.67
2023-01-05T12:08:12.044Z,5.03
2023-01-05T12:10:52.116Z,4.05
2023-01-05T12:13:42.204Z,3.62
2023-01-05T12:16:22.121Z,5.25
2023-01-05T12:18:58.407Z,5.85
2023-01-05T12:21:40.967Z,3.60
2023-01-05T12:24:30.525Z,5.27
2023-01-05T12:27:09.793Z,4.70
2023-01-05T12:35:39.706Z,2.58
2023-01-05T12:38:34.214Z,3.83
2023-01-05T12:41:19.309Z,3.00
2023-01-05T12:44:21.107Z,4.42
2023-01-05T12:47:16.241Z,3.10
2023-01-05T12:49:50.758Z,4.42
2023-01-05T12:52:28.580Z,3.93
2023-01-05T12:55:05.530Z,4.37
2023-01-05T12:57:39.122Z,3.15
2023-01-05T13:00:19.286Z,2.95
2023-01-05T13:02:56.284Z,2.60
2023-01-05T13:05:35.437Z,3.85
2023-01-05T13:08:27.546Z,3.00
2023-01-05T13:11:10.612Z,2.08
2023-01-05T13:13:57.797Z,5.35
2023-01-05T13:16:39.686Z,3.02
2023-01-05T13:19:38.263Z,3.15
2023-01-05T13:22:26.927Z,3.70
2023-01-05T13:25:06.651Z,2.30
2023-01-05T13:27:37.622Z,4.67
2023-01-05T13:30:14.167Z,4.20
2023-01-05T13:32:55.408Z,5.03
2023-01-05T13:35:31.946Z,2.17
2023-01-05T13:38:25.244Z,3.42
2023-01-05T13:41:11.062Z,4.13
2023-01-05T13:44:01.462Z,2.55
2023-01-05T13:46:57.896Z,3.00
2023-01-05T13:49:49.262Z,4.40
2023-01-05T13:52:49.125Z,3.15
2023-01-05T13:55:26.711Z,2.35
2023-01-05T13:57:57.701Z,3.30
2023-01-05T14:00:35.075Z,2.67
2023-01-05T14:03:12.141Z,2.50
2023-01-05T14:05:50.776Z,4.10
2023-01-05T14:08:30.191Z,2.72
2023-01-05T14:11:15.837Z,2.30
2023-01-05T14:14:05.252Z,3.12
2023-01-05T14:16:38.804Z,2.27
2023-01-05T14:19:28.772Z,2.10
2023-01-05T14:22:05.284Z,7.27
2023-01-05T14:24:41.550Z,4.37
2023-01-05T14:27:17.674Z,2.73
2023-01-05T14:29:58.086Z,2.60
2023-01-05T14:32:31.627Z,4.70
2023-01-05T14:35:14.235Z,4.37
2023-01-05T14:37:49.385Z,2.60
2023-01-05T14:40:42.391Z,2.42
2023-01-05T14:43:35.909Z,3.98
2023-01-05T14:46:18.402Z,2.87
2023-01-05T14:49:03.282Z,3.53
2023-01-05T14:51:37.674Z,2.17
2023-01-05T14:54:12.333Z,3.40
2023-01-05T14:56:45.962Z,2.53
2023-01-05T14:59:29.191Z,2.50
2023-01-05T15:02:03.485Z,2.33
2023-01-05T15:04:40.504Z,2.42
2023-01-05T15:07:44.561Z,2.33
2023-01-05T15:10:27.965Z,3.52
2023-01-05T15:13:28.703Z,3.42
2023-01-05T15:16:09.223Z,3.00
2023-01-05T15:19:03.124Z,1.67
2023-01-05T15:21:56.106Z,1.90
2023-01-05T15:24:56.895Z,2.87
2023-01-05T15:27:47.253Z,1.65
2023-01-05T15:30:49.510Z,2.42
2023-01-05T15:33:46.738Z,1.50
2023-01-05T15:36:33.499Z,3.00
2023-01-05T15:39:25.784Z,1.37
2023-01-05T15:42:01.240Z,2.83
2023-01-05T15:44:36.305Z,3.30
2023-01-05T15:47:11.987Z,2.52
2023-01-05T15:49:42.669Z,1.90
2023-01-05T15:52:35.183Z,2.15
2023-01-05T15:55:14.931Z,4.07
2023-01-05T15:57:55.634Z,3.53
2023-01-05T16:00:33.094Z,1.80
2023-01-05T16:03:05.592Z,3.90
2023-01-05T16:05:37.000Z,3.35
2023-01-05T16:08:13.381Z,4.20
2023-01-05T16:10:46.902Z,5.05
2023-01-05T16:13:20.195Z,3.12
2023-01-05T16:15:53.790Z,4.12
2023-01-05T16:18:27.296Z,3.27
2023-01-05T16:21:03.599Z,5.95
2023-01-05T16:23:40.584Z,4.77
2023-01-05T16:26:18.820Z,2.75
2023-01-05T16:28:49.249Z,4.07
2023-01-05T16:31:32.257Z,4.67
2023-01-05T16:34:05.970Z,3.25
2023-01-05T16:36:36.536Z,3.40
2023-01-05T16:39:20.395Z,2.47
2023-01-05T16:42:11.118Z,3.67
2023-01-05T16:44:43.172Z,2.80
2023-01-05T16:47:16.689Z,4.73
2023-01-05T16:49:57.614Z,4.00
2023-01-05T16:52:25.961Z,4.30
2023-01-05T16:55:19.955Z,3.55
2023-01-05T16:57:47.729Z,3.27
2023-01-05T17:00:34.387Z,3.95
2023-01-05T17:03:29.185Z,3.58
2023-01-05T17:06:01.799Z,3.85
2023-01-05T17:08:38.396Z,4.22
2023-01-05T17:11:12.538Z,5.40
2023-01-05T17:13:54.406Z,2.45
2023-01-05T17:16:25.468Z,4.15
2023-01-05T17:19:00.668Z,3.57
2023-01-05T17:21:33.083Z,5.97
2023-01-05T17:24:03.946Z,2.33
2023-01-05T17:26:37.333Z,3.47
2023-01-05T17:29:08.687Z,3.95
2023-01-05T17:31:39.619Z,3.67
2023-01-05T17:34:10.200Z,2.77
2023-01-05T17:36:41.282Z,5.97
2023-01-05T17:39:21.398Z,3.33
2023-01-05T17:41:52.100Z,4.40
2023-01-05T17:44:22.599Z,3.07
2023-01-05T17:46:55.423Z,2.83
2023-01-05T17:51:56.691Z,5.83
2023-01-05T17:54:27.279Z,2.08
2023-01-05T17:56:58.473Z,3.40
2023-01-05T17:59:29.143Z,2.87
2023-01-05T18:02:00.936Z,3.95
2023-01-05T18:04:33.005Z,1.90
2023-01-05T18:07:05.829Z,3.17
2023-01-05T18:09:37.953Z,4.83
2023-01-05T18:12:10.880Z,3.47
2023-01-05T18:14:43.003Z,4.70
2023-01-05T18:17:15.730Z,4.45
2023-01-05T18:19:47.909Z,3.43
2023-01-05T18:22:19.799Z,4.33
2023-01-05T18:24:50.698Z,4.67
2023-01-05T18:27:21.664Z,5.10
2023-01-05T18:29:53.618Z,2.90
2023-01-05T18:32:24.564Z,3.08
2023-01-05T18:34:55.414Z,4.50
2023-01-05T18:37:33.278Z,6.33
2023-01-05T18:40:05.384Z,3.70
2023-01-05T18:42:37.629Z,2.47
2023-01-05T18:45:19.741Z,5.87
2023-01-05T18:47:43.410Z,4.73
2023-01-05T18:50:15.015Z,2.95
2023-01-05T18:52:46.969Z,3.67
2023-01-05T18:55:19.195Z,5.53
2023-01-05T18:57:51.146Z,6.55
2023-01-05T19:00:23.778Z,4.90
2023-01-05T19:02:54.322Z,5.30
2023-01-05T19:05:26.029Z,5.50
2023-01-05T19:07:57.520Z,5.60
2023-01-05T19:10:31.073Z,3.03
2023-01-05T19:13:02.615Z,5.63
2023-01-05T19:15:38.530Z,2.83
2023-01-05T19:18:09.360Z,4.53
2023-01-05T19:20:39.996Z,5.07
2023-01-05T19:23:11.844Z,3.25
2023-01-05T19:25:44.447Z,3.90
2023-01-05T19:28:16.178Z,6.45
2023-01-05T19:30:47.553Z,3.13
2023-01-05T19:33:19.363Z,4.17
2023-01-05T19:35:51.778Z,2.07
2023-01-05T19:38:26.524Z,5.10
2023-01-05T19:40:58.732Z,3.50
2023-01-05T19:44:07.182Z,6.53
2023-01-05T19:46:37.758Z,4.63
2023-01-05T19:49:16.023Z,4.53
2023-01-05T19:51:47.014Z,5.40
2023-01-05T19:54:18.223Z,5.80
2023-01-05T19:56:50.928Z,3.65
2023-01-05T19:59:29.026Z,5.03
2023-01-05T20:02:04.075Z,3.27
2023-01-05T20:04:37.315Z,4.53
2023-01-05T20:07:10.362Z,3.67
2023-01-05T20:09:41.380Z,3.45
2023-01-05T20:12:15.390Z,5.67
2023-01-05T20:14:45.057Z,2.58
2023-01-05T20:17:15.813Z,4.20
2023-01-05T20:19:46.285Z,4.37
2023-01-05T20:22:17.805Z,4.83
2023-01-05T20:24:48.311Z,3.93
2023-01-05T20:27:19.581Z,4.63
2023-01-05T20:29:52.139Z,6.50
2023-01-05T20:32:46.890Z,2.90
2023-01-05T20:35:17.515Z,3.17
2023-01-05T20:37:48.724Z,2.33
2023-01-05T20:40:19.210Z,5.10
2023-01-05T20:42:52.498Z,6.10
2023-01-05T20:45:27.119Z,6.70
2023-01-05T20:47:59.755Z,3.05
2023-01-05T20:50:34.086Z,4.72
2023-01-05T20:53:07.132Z,4.30
2023-01-05T20:55:42.859Z,4.57
2023-01-05T20:58:15.131Z,6.47
2023-01-05T21:01:10.603Z,4.73
2023-01-05T21:03:22.710Z,2.42
2023-01-05T21:05:54.334Z,9.23
2023-01-05T21:08:26.781Z,5.30
2023-01-05T21:11:04.352Z,3.97
2023-01-05T21:13:34.757Z,3.67
2023-01-05T21:16:07.004Z,4.30
2023-01-05T21:18:38.758Z,5.75
2023-01-05T21:21:09.246Z,5.03
2023-01-05T21:23:41.086Z,2.43
2023-01-05T21:26:14.643Z,5.70
2023-01-05T21:28:45.422Z,6.20
2023-01-05T21:31:18.878Z,5.07
2023-01-05T21:33:50.973Z,6.65
2023-01-05T21:36:30.948Z,4.33
2023-01-05T21:39:05.811Z,6.50
2023-01-05T21:41:42.615Z,2.47
2023-01-05T21:44:17.910Z,3.63
2023-01-05T21:46:52.929Z,3.93
2023-01-05T21:49:26.192Z,4.43
2023-01-05T21:52:18.229Z,5.60
2023-01-05T21:55:06.413Z,5.43
2023-01-05T21:57:39.497Z,7.00
2023-01-05T22:00:12.629Z,5.67
2023-01-05T22:02:44.134Z,6.43
2023-01-05T22:05:14.873Z,8.95
2023-01-05T22:07:46.435Z,8.60
2023-01-05T22:10:17.936Z,5.75
2023-01-05T22:12:49.073Z,5.90
2023-01-05T22:15:21.241Z,4.67
2023-01-05T22:17:53.153Z,6.53
2023-01-05T22:20:23.840Z,4.40
2023-01-05T22:22:55.390Z,3.70
2023-01-05T22:25:29.224Z,6.20
2023-01-05T22:28:00.331Z,4.70
2023-01-05T22:30:32.589Z,4.33
2023-01-05T22:33:03.449Z,3.83
2023-01-05T22:35:34.029Z,5.93
2023-01-05T22:38:04.527Z,4.27
2023-01-05T22:40:35.126Z,6.43
2023-01-05T22:43:05.737Z,4.77
2023-01-05T22:45:36.595Z,6.13
2023-01-05T22:48:07.402Z,6.33
2023-01-05T22:50:37.918Z,6.17
2023-01-05T22:53:09.078Z,6.80
2023-01-05T22:55:43.186Z,5.57
2023-01-05T22:58:16.455Z,5.37
2023-01-05T23:00:47.604Z,11.77
2023-01-05T23:03:19.518Z,9.25
2023-01-05T23:05:50.001Z,9.60
2023-01-05T23:08:20.648Z,8.40
2023-01-05T23:10:51.082Z,8.30
2023-01-05T23:13:21.650Z,5.33
2023-01-05T23:15:56.674Z,6.77
2023-01-05T23:18:29.075Z,4.97
2023-01-05T23:21:02.959Z,11.20
2023-01-05T23:23:33.824Z,8.13
2023-01-05T23:26:06.511Z,9.40
2023-01-05T23:28:37.429Z,8.17
2023-01-05T23:31:10.982Z,9.40
2023-01-05T23:33:42.688Z,10.48
2023-01-05T23:36:15.687Z,11.27
2023-01-05T23:38:49.531Z,7.53
2023-01-05T23:41:20.751Z,7.70
2023-01-05T23:43:51.632Z,8.67
2023-01-05T23:46:23.704Z,10.27
2023-01-05T23:48:54.360Z,3.53
2023-01-05T23:51:24.781Z,6.20
2023-01-05T23:53:57.135Z,6.10
2023-01-05T23:56:31.050Z,5.60
2023-01-05T23:59:08.784Z,10.63
